createdAt,value
2018-07-11T00:01:22.655Z,345.97
2018-07-11T00:03:54.080Z,360.97
2018-07-11T00:06:25.347Z,350.83
2018-07-11T00:08:55.584Z,382.60
2018-07-11T00:11:25.817Z,390.90
2018-07-11T00:13:56.065Z,391.27
2018-07-11T00:16:26.586Z,384.67
2018-07-11T00:18:56.613Z,347.63
2018-07-11T00:21:26.908Z,357.83
2018-07-11T00:23:57.157Z,368.00
2018-07-11T00:26:27.464Z,380.13
2018-07-11T00:31:33.070Z,383.43
2018-07-11T00:34:03.294Z,390.73
2018-07-11T00:36:33.581Z,377.10
2018-07-11T00:39:04.906Z,385.30
2018-07-11T00:41:35.042Z,382.30
2018-07-11T00:44:05.118Z,394.00
2018-07-11T00:46:35.207Z,386.43
2018-07-11T00:49:05.527Z,380.93
2018-07-11T00:51:35.813Z,406.13
2018-07-11T00:54:05.885Z,391.30
2018-07-11T00:56:36.173Z,382.50
2018-07-11T00:59:12.666Z,372.70
2018-07-11T01:01:42.992Z,386.73
2018-07-11T01:04:13.217Z,347.23
2018-07-11T01:06:43.317Z,371.33
2018-07-11T01:09:13.446Z,353.80
2018-07-11T01:11:43.513Z,370.67
2018-07-11T01:14:13.801Z,371.57
2018-07-11T01:16:43.848Z,382.07
2018-07-11T01:19:15.056Z,397.30
2018-07-11T01:21:45.385Z,392.87
2018-07-11T01:24:15.697Z,389.30
2018-07-11T01:26:45.806Z,402.90
2018-07-11T01:29:16.030Z,425.50
2018-07-11T01:31:46.310Z,404.90
2018-07-11T01:34:16.566Z,411.13
2018-07-11T01:36:46.753Z,393.47
2018-07-11T01:39:17.038Z,405.13
2018-07-11T01:41:47.610Z,401.27
2018-07-11T01:44:17.840Z,416.80
2018-07-11T01:46:50.357Z,466.87
2018-07-11T01:49:20.654Z,465.53
2018-07-11T01:52:02.064Z,470.17
2018-07-11T01:54:32.063Z,511.60
2018-07-11T01:57:02.374Z,525.77
2018-07-11T01:59:35.783Z,558.07
2018-07-11T02:02:06.344Z,587.40
2018-07-11T02:04:39.505Z,568.00
2018-07-11T02:07:10.173Z,565.53
2018-07-11T02:09:40.231Z,557.60
2018-07-11T02:12:10.534Z,479.40
2018-07-11T02:14:41.216Z,464.17
2018-07-11T02:17:11.474Z,504.97
2018-07-11T02:19:41.801Z,519.00
2018-07-11T02:22:12.069Z,594.27
2018-07-11T02:24:42.392Z,604.13
2018-07-11T02:27:12.410Z,602.30
2018-07-11T02:29:42.618Z,1999.90
2018-07-11T02:32:12.897Z,645.50
2018-07-11T02:34:43.176Z,1100.20
2018-07-11T02:37:13.596Z,621.23
2018-07-11T02:39:43.850Z,588.30
2018-07-11T02:42:14.151Z,539.00
2018-07-11T02:44:44.388Z,526.10
2018-07-11T02:47:45.417Z,494.00
2018-07-11T02:50:15.944Z,515.90
2018-07-11T02:52:46.356Z,544.57
2018-07-11T02:55:16.566Z,628.17
2018-07-11T02:57:46.882Z,606.70
2018-07-11T03:00:17.122Z,559.37
2018-07-11T03:02:47.333Z,597.73
2018-07-11T03:05:17.630Z,611.40
2018-07-11T03:07:47.891Z,621.80
2018-07-11T03:10:17.849Z,1999.90
2018-07-11T03:12:48.084Z,1999.90
2018-07-11T03:15:18.597Z,1999.90
2018-07-11T03:17:48.700Z,1999.90
2018-07-11T03:20:18.907Z,1999.90
2018-07-11T03:22:49.231Z,1999.90
2018-07-11T03:25:19.429Z,1999.90
2018-07-11T03:27:49.665Z,1999.90
2018-07-11T03:30:19.881Z,1999.90
2018-07-11T03:32:50.367Z,1999.90
2018-07-11T03:35:20.645Z,1999.90
2018-07-11T03:37:51.177Z,1999.90
2018-07-11T03:40:21.645Z,1999.90
2018-07-11T03:42:51.838Z,1999.90
2018-07-11T03:45:22.096Z,1999.90
2018-07-11T03:47:52.329Z,1999.90
2018-07-11T03:50:22.605Z,1999.90
2018-07-11T03:52:52.913Z,1999.90
2018-07-11T03:55:23.143Z,1999.90
2018-07-11T03:57:53.344Z,1999.90
2018-07-11T04:00:26.063Z,1999.90
2018-07-11T04:02:57.495Z,1088.43
2018-07-11T04:05:27.693Z,632.07
2018-07-11T04:07:57.903Z,575.73
2018-07-11T04:10:28.085Z,515.23
2018-07-11T04:13:01.246Z,502.97
2018-07-11T04:15:31.465Z,557.80
2018-07-11T04:18:01.675Z,512.17
2018-07-11T04:20:31.887Z,648.10
2018-07-11T04:23:02.093Z,626.70
2018-07-11T04:25:32.346Z,645.63
2018-07-11T04:28:02.977Z,654.20
2018-07-11T04:30:33.247Z,606.33
2018-07-11T04:33:03.606Z,485.73
2018-07-11T04:35:33.805Z,524.53
2018-07-11T04:38:04.129Z,519.07
2018-07-11T04:40:34.528Z,580.07
2018-07-11T04:43:04.891Z,574.53
2018-07-11T04:45:35.474Z,546.70
2018-07-11T04:48:06.913Z,611.80
2018-07-11T04:50:37.442Z,523.77
2018-07-11T04:53:12.182Z,631.20
2018-07-11T04:55:43.805Z,554.63
2018-07-11T04:58:14.058Z,552.00
2018-07-11T05:00:44.301Z,491.97
2018-07-11T05:03:14.515Z,612.20
2018-07-11T05:05:44.732Z,474.77
2018-07-11T05:08:15.012Z,458.57
2018-07-11T05:10:45.240Z,426.13
2018-07-11T05:13:15.491Z,404.80
2018-07-11T05:15:45.742Z,326.90
2018-07-11T05:18:16.349Z,291.00
2018-07-11T05:20:47.174Z,311.50
2018-07-11T05:23:17.421Z,398.67
2018-07-11T05:25:47.610Z,274.33
2018-07-11T05:28:17.805Z,143.57
2018-07-11T05:30:48.042Z,197.20
2018-07-11T05:33:18.325Z,120.40
2018-07-11T05:35:48.561Z,226.13
2018-07-11T05:38:19.651Z,379.73
2018-07-11T05:40:49.894Z,128.00
2018-07-11T05:43:20.071Z,133.10
2018-07-11T05:45:50.296Z,185.30
2018-07-11T05:48:21.576Z,243.37
2018-07-11T05:50:51.815Z,350.87
2018-07-11T05:53:21.828Z,282.17
2018-07-11T05:55:52.099Z,202.40
2018-07-11T05:58:22.621Z,370.80
2018-07-11T06:00:52.924Z,347.67
2018-07-11T06:03:23.290Z,409.67
2018-07-11T06:05:53.886Z,398.67
2018-07-11T06:08:24.413Z,253.50
2018-07-11T06:10:54.889Z,365.33
2018-07-11T06:13:24.915Z,309.20
2018-07-11T06:15:55.093Z,241.63
2018-07-11T06:18:25.753Z,332.60
2018-07-11T06:20:56.016Z,402.80
2018-07-11T06:23:25.985Z,426.07
2018-07-11T06:25:56.002Z,343.63
2018-07-11T06:28:26.186Z,349.03
2018-07-11T06:30:56.397Z,318.63
2018-07-11T06:33:26.778Z,442.80
2018-07-11T06:35:56.750Z,433.57
2018-07-11T06:38:26.934Z,410.63
2018-07-11T06:40:57.166Z,424.40
2018-07-11T06:43:27.350Z,411.00
2018-07-11T06:45:57.582Z,444.20
2018-07-11T06:48:27.805Z,455.93
2018-07-11T06:50:57.845Z,456.63
2018-07-11T06:53:27.865Z,448.33
2018-07-11T06:55:58.065Z,235.37
2018-07-11T06:58:28.295Z,436.73
2018-07-11T07:00:58.476Z,267.83
2018-07-11T07:03:28.762Z,327.57
2018-07-11T07:05:59.030Z,416.40
2018-07-11T07:08:29.229Z,110.53
2018-07-11T07:10:59.694Z,40.00
2018-07-11T07:13:30.169Z,37.53
2018-07-11T07:16:01.082Z,18.23
2018-07-11T07:18:31.935Z,17.10
2018-07-11T07:21:02.891Z,19.20
2018-07-11T07:23:34.374Z,18.75
2018-07-11T07:26:05.038Z,18.70
2018-07-11T07:28:35.278Z,18.17
2018-07-11T07:31:05.621Z,16.93
2018-07-11T07:33:35.914Z,17.30
2018-07-11T07:36:06.198Z,15.90
2018-07-11T07:38:39.761Z,17.70
2018-07-11T07:41:10.459Z,17.65
2018-07-11T07:43:42.590Z,18.15
2018-07-11T07:46:13.471Z,17.32
2018-07-11T07:48:44.108Z,17.75
2018-07-11T07:51:14.714Z,16.85
2018-07-11T07:53:45.609Z,17.00
2018-07-11T07:56:16.446Z,16.85
2018-07-11T07:58:46.699Z,14.63
2018-07-11T08:01:17.589Z,14.83
2018-07-11T08:03:47.581Z,14.97
2018-07-11T08:06:18.519Z,15.15
2018-07-11T08:08:50.693Z,15.72
2018-07-11T08:11:21.598Z,16.27
2018-07-11T08:13:52.462Z,15.53
2018-07-11T08:16:23.286Z,14.98
2018-07-11T08:18:54.054Z,15.83
2018-07-11T08:21:24.754Z,15.08
2018-07-11T08:24:06.712Z,14.60
2018-07-11T08:26:48.868Z,13.75
2018-07-11T08:29:31.413Z,14.87
2018-07-11T08:33:15.046Z,15.63
2018-07-11T08:36:00.407Z,15.35
2018-07-11T08:38:56.480Z,14.35
2018-07-11T08:41:38.252Z,15.03
2018-07-11T08:44:19.971Z,14.63
2018-07-11T08:50:03.173Z,14.25
2018-07-11T08:54:48.900Z,14.00
2018-07-11T08:57:28.983Z,13.98
2018-07-11T09:00:12.375Z,13.90
2018-07-11T09:03:58.247Z,13.50
2018-07-11T09:07:37.245Z,13.20
2018-07-11T09:11:22.132Z,13.08
2018-07-11T09:14:38.448Z,13.55
2018-07-11T09:17:17.062Z,13.83
2018-07-11T09:24:09.561Z,14.63
2018-07-11T09:26:40.922Z,17.05
2018-07-11T09:29:11.974Z,19.95
2018-07-11T09:31:43.487Z,19.17
2018-07-11T09:34:14.405Z,19.17
2018-07-11T09:36:45.410Z,18.50
2018-07-11T09:39:16.216Z,19.23
2018-07-11T09:41:47.036Z,18.55
2018-07-11T09:44:17.590Z,19.23
2018-07-11T09:46:48.206Z,20.12
2018-07-11T09:49:18.989Z,19.25
2018-07-11T09:51:49.936Z,20.37
2018-07-11T09:54:20.761Z,19.52
2018-07-11T09:56:51.885Z,20.15
2018-07-11T09:59:22.173Z,20.07
2018-07-11T10:01:53.055Z,20.30
2018-07-11T10:04:23.298Z,21.07
2018-07-11T10:06:54.544Z,21.17
2018-07-11T10:09:24.789Z,21.20
2018-07-11T10:11:55.040Z,22.13
2018-07-11T10:14:25.824Z,20.95
2018-07-11T10:16:56.035Z,20.47
2018-07-11T10:19:26.865Z,20.50
2018-07-11T10:21:57.431Z,19.42
2018-07-11T10:24:28.270Z,19.55
2018-07-11T10:26:59.061Z,19.87
2018-07-11T10:29:29.865Z,19.80
2018-07-11T10:32:00.720Z,20.02
2018-07-11T10:34:31.567Z,19.67
2018-07-11T10:37:02.571Z,18.42
2018-07-11T10:39:33.429Z,19.10
2018-07-11T10:42:04.213Z,19.35
2018-07-11T10:44:35.025Z,17.25
2018-07-11T10:47:07.781Z,18.15
2018-07-11T10:49:38.613Z,17.35
2018-07-11T10:52:09.706Z,17.35
2018-07-11T10:54:40.969Z,17.75
2018-07-11T10:57:11.733Z,15.43
2018-07-11T10:59:42.838Z,16.00
2018-07-11T11:02:18.112Z,17.90
2018-07-11T11:04:48.994Z,16.95
2018-07-11T11:07:19.997Z,18.25
2018-07-11T11:09:50.841Z,17.48
2018-07-11T11:12:21.651Z,18.20
2018-07-11T11:14:52.521Z,18.77
2018-07-11T11:17:23.329Z,19.80
2018-07-11T11:19:54.149Z,17.62
2018-07-11T11:22:24.957Z,18.67
2018-07-11T11:24:55.865Z,18.32
2018-07-11T11:27:26.638Z,18.90
2018-07-11T11:29:57.537Z,18.95
2018-07-11T11:32:28.454Z,19.50
2018-07-11T11:34:59.575Z,18.37
2018-07-11T11:37:30.773Z,19.77
2018-07-11T11:40:01.604Z,19.77
2018-07-11T11:42:32.603Z,19.92
2018-07-11T11:45:03.468Z,19.80
2018-07-11T11:47:34.275Z,17.32
2018-07-11T11:50:05.481Z,20.97
2018-07-11T11:52:36.268Z,18.75
2018-07-11T11:55:07.106Z,18.80
2018-07-11T11:57:37.871Z,19.52
2018-07-11T12:00:08.698Z,18.57
2018-07-11T12:02:39.474Z,18.23
2018-07-11T12:05:10.285Z,18.23
2018-07-11T12:07:41.147Z,18.77
2018-07-11T12:10:12.080Z,20.02
2018-07-11T12:12:42.885Z,20.88
2018-07-11T12:15:14.541Z,20.35
2018-07-11T12:17:45.333Z,20.60
2018-07-11T12:20:16.159Z,22.15
2018-07-11T12:22:46.996Z,22.32
2018-07-11T12:25:18.073Z,21.77
2018-07-11T12:27:48.822Z,19.27
2018-07-11T12:30:19.824Z,19.20
2018-07-11T12:32:50.533Z,17.87
2018-07-11T12:35:21.311Z,21.55
2018-07-11T12:37:52.360Z,20.72
2018-07-11T12:40:22.987Z,20.65
2018-07-11T12:42:53.761Z,19.40
2018-07-11T12:45:24.577Z,19.48
2018-07-11T12:48:00.444Z,18.77
2018-07-11T12:50:31.249Z,20.30
2018-07-11T12:53:02.185Z,19.27
2018-07-11T12:55:33.045Z,18.85
2018-07-11T12:58:03.913Z,19.92
2018-07-11T13:00:34.533Z,17.82
2018-07-11T13:03:05.357Z,17.90
2018-07-11T13:05:36.177Z,20.52
2018-07-11T13:08:06.825Z,17.10
2018-07-11T13:10:38.001Z,18.95
2018-07-11T13:13:08.778Z,18.37
2018-07-11T13:15:39.587Z,16.25
2018-07-11T13:18:10.386Z,17.52
2018-07-11T13:20:41.191Z,17.73
2018-07-11T13:23:11.972Z,17.23
2018-07-11T13:25:42.643Z,17.10
2018-07-11T13:28:13.662Z,17.42
2018-07-11T13:30:44.529Z,15.53
2018-07-11T13:33:16.374Z,17.07
2018-07-11T13:35:47.188Z,15.30
2018-07-11T13:38:18.193Z,16.27
2018-07-11T13:40:48.972Z,16.95
2018-07-11T13:43:19.737Z,15.80
2018-07-11T13:45:50.294Z,15.18
2018-07-11T13:48:20.917Z,14.83
2018-07-11T13:50:52.093Z,14.75
2018-07-11T13:53:22.934Z,14.20
2018-07-11T13:55:53.786Z,15.58
2018-07-11T13:58:24.395Z,15.53
2018-07-11T14:00:59.146Z,15.13
2018-07-11T14:03:30.057Z,16.17
2018-07-11T14:06:00.681Z,15.68
2018-07-11T14:08:31.519Z,15.28
2018-07-11T14:11:03.402Z,15.58
2018-07-11T14:13:34.738Z,17.27
2018-07-11T14:16:05.458Z,16.77
2018-07-11T14:18:36.281Z,15.95
2018-07-11T14:21:07.689Z,17.27
2018-07-11T14:23:41.169Z,17.20
2018-07-11T14:26:14.794Z,15.75
2018-07-11T14:28:53.375Z,16.35
2018-07-11T14:31:35.912Z,15.45
2018-07-11T14:34:08.676Z,16.90
2018-07-11T14:36:39.632Z,16.37
2018-07-11T14:39:10.557Z,14.63
2018-07-11T14:41:41.344Z,14.73
2018-07-11T14:44:12.216Z,14.50
2018-07-11T14:46:43.135Z,14.30
2018-07-11T14:49:15.745Z,14.70
2018-07-11T14:51:46.661Z,15.75
2018-07-11T14:54:17.821Z,13.85
2018-07-11T14:56:48.755Z,14.55
2018-07-11T14:59:19.603Z,13.53
2018-07-11T15:01:50.441Z,10.15
2018-07-11T15:04:21.202Z,10.00
2018-07-11T15:06:51.782Z,10.18
2018-07-11T15:09:22.850Z,10.13
2018-07-11T15:11:54.024Z,9.95
2018-07-11T15:14:25.018Z,10.23
2018-07-11T15:16:55.906Z,10.88
2018-07-11T15:19:26.733Z,10.20
2018-07-11T15:21:57.535Z,10.65
2018-07-11T15:24:28.371Z,11.20
2018-07-11T15:26:59.106Z,11.73
2018-07-11T15:29:29.677Z,13.75
2018-07-11T15:32:00.893Z,12.10
2018-07-11T15:34:32.049Z,12.30
2018-07-11T15:37:02.985Z,11.38
2018-07-11T15:39:33.974Z,11.35
2018-07-11T15:42:05.076Z,12.33
2018-07-11T15:44:35.679Z,13.38
2018-07-11T15:47:07.051Z,11.55
2018-07-11T15:49:37.876Z,11.48
2018-07-11T15:52:08.745Z,11.93
2018-07-11T15:54:40.054Z,12.30
2018-07-11T15:57:11.217Z,11.97
2018-07-11T15:59:53.626Z,12.00
2018-07-11T16:02:24.742Z,11.45
2018-07-11T16:04:55.601Z,12.53
2018-07-11T16:07:29.873Z,12.25
2018-07-11T16:10:00.909Z,11.90
2018-07-11T16:12:31.713Z,9.95
2018-07-11T16:15:02.481Z,7.62
2018-07-11T16:17:33.551Z,5.78
2018-07-11T16:20:04.389Z,6.00
2018-07-11T16:22:35.272Z,6.15
2018-07-11T16:25:06.513Z,5.47
2018-07-11T16:27:37.133Z,6.90
2018-07-11T16:30:07.898Z,5.97
2018-07-11T16:32:38.743Z,5.90
2018-07-11T16:35:09.505Z,11.10
2018-07-11T16:37:40.325Z,10.35
2018-07-11T16:40:11.182Z,8.48
2018-07-11T16:42:42.707Z,8.85
2018-07-11T16:45:13.828Z,8.75
2018-07-11T16:47:45.418Z,9.60
2018-07-11T16:50:16.897Z,13.68
2018-07-11T16:52:47.887Z,15.68
2018-07-11T16:55:18.508Z,12.60
2018-07-11T16:57:50.843Z,13.18
2018-07-11T17:00:25.137Z,14.07
2018-07-11T17:03:12.228Z,11.78
2018-07-11T17:05:48.828Z,13.23
2018-07-11T17:08:29.565Z,15.70
2018-07-11T17:11:07.745Z,14.13
2018-07-11T17:13:38.170Z,13.63
2018-07-11T17:16:08.549Z,11.23
2018-07-11T17:18:45.127Z,12.33
2018-07-11T17:21:23.112Z,13.07
2018-07-11T17:23:57.616Z,13.23
2018-07-11T17:26:27.889Z,13.90
2018-07-11T17:28:59.973Z,22.27
2018-07-11T17:31:30.491Z,17.60
2018-07-11T17:34:00.721Z,33.57
2018-07-11T17:36:33.900Z,247.43
2018-07-11T17:39:05.326Z,440.97
2018-07-11T17:41:36.402Z,1999.90
2018-07-11T17:44:06.672Z,1999.90
2018-07-11T17:46:37.224Z,1999.90
2018-07-11T17:49:10.919Z,1999.90
2018-07-11T17:52:19.085Z,1999.90
2018-07-11T17:55:10.597Z,1999.90
2018-07-11T17:58:01.127Z,1999.90
2018-07-11T18:00:36.835Z,1999.90
2018-07-11T18:03:17.701Z,1999.90
2018-07-11T18:05:57.328Z,355.53
2018-07-11T18:08:33.946Z,513.07
2018-07-11T18:11:04.291Z,561.23
2018-07-11T18:13:42.954Z,489.30
2018-07-11T18:16:40.106Z,390.33
2018-07-11T18:19:21.089Z,377.87
2018-07-11T18:22:02.969Z,348.43
2018-07-11T18:24:41.011Z,336.80
2018-07-11T18:27:22.617Z,326.97
2018-07-11T18:30:03.544Z,280.07
2018-07-11T18:32:50.942Z,270.67
2018-07-11T18:35:31.382Z,241.73
2018-07-11T18:39:08.182Z,217.10
2018-07-11T18:41:42.841Z,216.23
2018-07-11T18:45:11.628Z,222.53
2018-07-11T18:47:58.113Z,199.83
2018-07-11T18:50:46.958Z,176.13
2018-07-11T18:54:26.799Z,162.87
2018-07-11T18:57:08.876Z,167.17
2018-07-11T19:00:50.338Z,151.10
2018-07-11T19:03:31.501Z,137.13
2018-07-11T19:06:13.753Z,123.33
2018-07-11T19:08:53.681Z,106.23
2018-07-11T19:11:28.400Z,109.17
2018-07-11T19:14:05.142Z,105.17
2018-07-11T19:18:53.197Z,97.20
2018-07-11T19:21:56.857Z,101.17
2018-07-11T19:24:38.694Z,81.07
2018-07-11T19:27:21.283Z,68.20
2018-07-11T19:30:02.967Z,65.77
2018-07-11T19:32:39.206Z,61.00
2018-07-11T19:35:16.695Z,55.97
2018-07-11T19:38:57.090Z,52.80
2018-07-11T19:41:37.265Z,52.03
2018-07-11T19:44:21.003Z,48.13
2018-07-11T19:49:05.933Z,52.00
2018-07-11T19:51:49.340Z,49.03
2018-07-11T19:54:35.462Z,53.33
2018-07-11T19:57:05.492Z,57.70
2018-07-11T19:59:35.899Z,53.13
2018-07-11T20:02:06.209Z,53.27
2018-07-11T20:04:36.544Z,55.43
2018-07-11T20:07:07.187Z,56.53
2018-07-11T20:09:37.471Z,53.33
2018-07-11T20:12:07.474Z,56.80
2018-07-11T20:14:37.692Z,53.80
2018-07-11T20:17:07.908Z,54.83
2018-07-11T20:19:38.139Z,57.17
2018-07-11T20:22:08.342Z,57.47
2018-07-11T20:24:38.822Z,55.73
2018-07-11T20:27:09.040Z,59.50
2018-07-11T20:29:39.329Z,60.97
2018-07-11T20:32:09.606Z,61.13
2018-07-11T20:34:39.865Z,59.67
2018-07-11T20:37:10.456Z,65.77
2018-07-11T20:39:40.685Z,60.37
2018-07-11T20:42:10.985Z,64.33
2018-07-11T20:44:41.204Z,64.40
2018-07-11T20:47:11.443Z,63.83
2018-07-11T20:49:41.698Z,69.53
2018-07-11T20:52:11.900Z,66.37
2018-07-11T20:54:42.126Z,70.03
2018-07-11T20:57:12.685Z,70.57
2018-07-11T20:59:53.937Z,73.27
2018-07-11T21:02:35.442Z,72.73
2018-07-11T21:07:29.043Z,70.60
2018-07-11T21:11:17.145Z,73.03
2018-07-11T21:18:04.536Z,75.33
2018-07-11T21:20:35.003Z,66.37
2018-07-11T21:23:05.306Z,63.70
2018-07-11T21:25:35.709Z,58.27
2018-07-11T21:28:05.945Z,64.13
2018-07-11T21:30:37.422Z,64.60
2018-07-11T21:33:11.208Z,67.00
2018-07-11T21:35:42.797Z,69.27
2018-07-11T21:38:13.088Z,64.60
2018-07-11T21:40:43.448Z,69.67
2018-07-11T21:43:16.267Z,71.80
2018-07-11T21:45:46.675Z,64.80
2018-07-11T21:48:16.886Z,65.40
2018-07-11T21:50:47.810Z,63.20
2018-07-11T21:53:19.749Z,66.07
2018-07-11T21:55:49.995Z,59.23
2018-07-11T21:58:20.369Z,67.40
2018-07-11T22:00:50.649Z,66.07
2018-07-11T22:03:20.648Z,60.70
2018-07-11T22:05:50.861Z,67.70
2018-07-11T22:08:21.061Z,73.17
2018-07-11T22:10:51.270Z,61.03
2018-07-11T22:13:21.538Z,60.83
2018-07-11T22:15:51.821Z,72.53
2018-07-11T22:18:35.769Z,84.93
2018-07-11T22:21:05.625Z,79.47
2018-07-11T22:23:33.899Z,69.30
2018-07-11T22:26:02.404Z,66.20
2018-07-11T22:28:30.678Z,76.30
2018-07-11T22:30:58.949Z,77.83
2018-07-11T22:33:27.328Z,76.20
2018-07-11T22:35:55.986Z,64.37
2018-07-11T22:38:24.281Z,64.87
2018-07-11T22:40:52.618Z,89.03
2018-07-11T22:43:20.973Z,78.80
2018-07-11T22:45:49.278Z,91.80
2018-07-11T22:48:17.533Z,73.23
2018-07-11T22:50:45.928Z,85.70
2018-07-11T22:53:14.315Z,72.20
2018-07-11T22:55:42.782Z,105.27
2018-07-11T22:58:11.424Z,81.03
2018-07-11T23:00:40.276Z,81.77
2018-07-11T23:03:08.777Z,90.87
2018-07-11T23:05:37.092Z,96.70
2018-07-11T23:08:05.461Z,101.73
2018-07-11T23:10:33.761Z,93.77
2018-07-11T23:13:02.014Z,123.90
2018-07-11T23:15:30.273Z,91.40
2018-07-11T23:17:58.529Z,90.80
2018-07-11T23:20:26.876Z,102.53
2018-07-11T23:22:55.355Z,131.03
2018-07-11T23:25:23.654Z,106.17
2018-07-11T23:27:51.925Z,101.93
2018-07-11T23:30:20.223Z,98.37
2018-07-11T23:32:48.535Z,107.00
2018-07-11T23:35:16.795Z,110.57
2018-07-11T23:37:45.097Z,121.53
2018-07-11T23:40:13.446Z,119.97
2018-07-11T23:42:41.709Z,125.37
2018-07-11T23:45:10.001Z,131.93
2018-07-11T23:47:38.270Z,160.43
2018-07-11T23:50:06.533Z,207.70
2018-07-11T23:52:34.801Z,228.37
2018-07-11T23:55:03.089Z,232.67
2018-07-11T23:57:31.403Z,204.87
2018-07-11T23:59:59.694Z,182.07
